Canyondam, California
Current Conditions -  °F | °C
As of 2:49 PM on Saturday 25 Oct 2014 (Local Time) from KCIC Reporting Station
Broken Clouds Broken Clouds  
Wind Chill: 63°   Ceiling: 5000
Heat Index: 63°   Visibility: 10mi
Dew Point: 55°   Wind: 25mph
Humidity: 77%   Direction: 140°SE
Pressure: 29.97"   Gusts: 31mph
Location:  40.17°N, 121.07°W
Report Text: KCIC 252149Z 14022G27KT 10SM SCT034 BKN050 BKN180 17/13 A2997
Loading
Personal Weather Stations






























Interactive Weather Map
Tropical Storm Tracking
New forecast layout! Learn more

10-Day Weather Forecast

Advertisements
Track Severe Weather on mobile